sensor_id;sensor_type;location;lat;lon;timestamp;pressure;altitude;pressure_sealevel;temperature;humidity
39223;BME280;24936;46.328;11.026;2023-05-19T00:01:50;94531.63;;;11.08;88.00
39223;BME280;24936;46.328;11.026;2023-05-19T00:04:17;94522.91;;;11.07;88.30
39223;BME280;24936;46.328;11.026;2023-05-19T00:06:42;94524.56;;;11.28;88.29
39223;BME280;24936;46.328;11.026;2023-05-19T00:09:11;94522.75;;;11.28;88.80
39223;BME280;24936;46.328;11.026;2023-05-19T00:11:38;94526.34;;;11.27;89.19
39223;BME280;24936;46.328;11.026;2023-05-19T00:14:08;94529.31;;;11.05;90.00
39223;BME280;24936;46.328;11.026;2023-05-19T00:16:34;94528.09;;;10.89;90.50
39223;BME280;24936;46.328;11.026;2023-05-19T00:19:01;94527.66;;;10.84;91.07
39223;BME280;24936;46.328;11.026;2023-05-19T00:21:27;94528.91;;;10.80;91.08
39223;BME280;24936;46.328;11.026;2023-05-19T00:23:54;94526.56;;;10.77;90.10
39223;BME280;24936;46.328;11.026;2023-05-19T00:26:19;94532.66;;;10.87;90.53
39223;BME280;24936;46.328;11.026;2023-05-19T00:28:48;94533.34;;;10.79;91.11
39223;BME280;24936;46.328;11.026;2023-05-19T00:31:14;94522.66;;;10.81;91.83
39223;BME280;24936;46.328;11.026;2023-05-19T00:33:39;94524.22;;;10.64;92.49
39223;BME280;24936;46.328;11.026;2023-05-19T00:36:05;94531.13;;;10.65;92.98
39223;BME280;24936;46.328;11.026;2023-05-19T00:38:33;94527.81;;;10.73;93.42
39223;BME280;24936;46.328;11.026;2023-05-19T00:41:00;94524.22;;;10.74;93.72
39223;BME280;24936;46.328;11.026;2023-05-19T00:43:25;94532.09;;;10.64;95.15
39223;BME280;24936;46.328;11.026;2023-05-19T00:45:51;94534.19;;;10.60;95.60
39223;BME280;24936;46.328;11.026;2023-05-19T00:48:17;94531.41;;;10.52;95.65
39223;BME280;24936;46.328;11.026;2023-05-19T00:50:43;94525.06;;;10.64;95.89
39223;BME280;24936;46.328;11.026;2023-05-19T00:53:09;94525.88;;;10.55;96.58
39223;BME280;24936;46.328;11.026;2023-05-19T00:55:36;94532.38;;;10.41;96.67
39223;BME280;24936;46.328;11.026;2023-05-19T00:58:04;94524.44;;;10.31;96.63
39223;BME280;24936;46.328;11.026;2023-05-19T01:00:30;94532.19;;;10.23;95.96
39223;BME280;24936;46.328;11.026;2023-05-19T01:02:56;94520.28;;;10.19;96.55
39223;BME280;24936;46.328;11.026;2023-05-19T01:05:21;94524.41;;;10.12;96.23
39223;BME280;24936;46.328;11.026;2023-05-19T01:07:47;94526.06;;;10.03;96.88
39223;BME280;24936;46.328;11.026;2023-05-19T01:10:20;94525.22;;;10.02;97.98
39223;BME280;24936;46.328;11.026;2023-05-19T01:12:46;94527.16;;;10.00;97.74
39223;BME280;24936;46.328;11.026;2023-05-19T01:15:12;94529.66;;;10.12;97.58
39223;BME280;24936;46.328;11.026;2023-05-19T01:20:19;94514.84;;;10.01;96.35
39223;BME280;24936;46.328;11.026;2023-05-19T01:31:03;94513.22;;;10.09;94.54
39223;BME280;24936;46.328;11.026;2023-05-19T01:33:32;94510.88;;;10.16;94.17
39223;BME280;24936;46.328;11.026;2023-05-19T01:35:58;94514.31;;;10.17;94.45
39223;BME280;24936;46.328;11.026;2023-05-19T01:38:26;94514.84;;;10.10;94.87
39223;BME280;24936;46.328;11.026;2023-05-19T01:40:53;94520.81;;;10.03;95.55
39223;BME280;24936;46.328;11.026;2023-05-19T01:43:21;94515.81;;;10.00;96.46
39223;BME280;24936;46.328;11.026;2023-05-19T01:45:48;94519.97;;;10.02;96.43
39223;BME280;24936;46.328;11.026;2023-05-19T01:48:15;94517.19;;;10.04;96.79
39223;BME280;24936;46.328;11.026;2023-05-19T01:50:42;94524.69;;;10.08;96.87
39223;BME280;24936;46.328;11.026;2023-05-19T01:53:07;94519.94;;;9.92;96.38
39223;BME280;24936;46.328;11.026;2023-05-19T01:55:35;94521.47;;;9.95;96.54
39223;BME280;24936;46.328;11.026;2023-05-19T02:01:03;94523.13;;;9.96;94.75
39223;BME280;24936;46.328;11.026;2023-05-19T02:03:43;94520.47;;;9.96;95.33
39223;BME280;24936;46.328;11.026;2023-05-19T02:08:56;94520.78;;;9.93;96.46
39223;BME280;24936;46.328;11.026;2023-05-19T02:11:59;94520.22;;;9.99;96.14
39223;BME280;24936;46.328;11.026;2023-05-19T02:14:57;94518.44;;;10.00;96.42
39223;BME280;24936;46.328;11.026;2023-05-19T02:17:21;94531.59;;;10.00;96.20
39223;BME280;24936;46.328;11.026;2023-05-19T02:19:47;94528.38;;;9.96;96.30
39223;BME280;24936;46.328;11.026;2023-05-19T02:22:13;94523.94;;;9.87;96.88
39223;BME280;24936;46.328;11.026;2023-05-19T02:24:38;94524.41;;;10.02;96.70
39223;BME280;24936;46.328;11.026;2023-05-19T02:27:05;94526.31;;;10.00;96.22
39223;BME280;24936;46.328;11.026;2023-05-19T02:29:31;94531.19;;;10.04;95.88
39223;BME280;24936;46.328;11.026;2023-05-19T02:31:57;94524.50;;;10.00;95.95
39223;BME280;24936;46.328;11.026;2023-05-19T02:34:22;94519.97;;;10.02;95.67
39223;BME280;24936;46.328;11.026;2023-05-19T02:36:48;94529.06;;;9.98;96.14
39223;BME280;24936;46.328;11.026;2023-05-19T02:39:16;94520.63;;;9.94;96.21
39223;BME280;24936;46.328;11.026;2023-05-19T02:41:42;94518.41;;;9.90;97.26
39223;BME280;24936;46.328;11.026;2023-05-19T02:44:07;94519.06;;;9.82;97.55
39223;BME280;24936;46.328;11.026;2023-05-19T02:46:33;94525.28;;;9.81;97.69
39223;BME280;24936;46.328;11.026;2023-05-19T02:48:58;94511.47;;;9.89;97.97
39223;BME280;24936;46.328;11.026;2023-05-19T02:51:24;94510.78;;;9.87;98.43
39223;BME280;24936;46.328;11.026;2023-05-19T02:53:49;94515.75;;;9.80;98.64
39223;BME280;24936;46.328;11.026;2023-05-19T02:56:15;94509.81;;;9.88;98.81
39223;BME280;24936;46.328;11.026;2023-05-19T02:58:41;94515.81;;;10.00;98.62
39223;BME280;24936;46.328;11.026;2023-05-19T03:01:07;94512.72;;;9.85;97.78
39223;BME280;24936;46.328;11.026;2023-05-19T03:03:32;94514.94;;;9.89;97.44
39223;BME280;24936;46.328;11.026;2023-05-19T03:05:58;94511.63;;;9.87;97.08
39223;BME280;24936;46.328;11.026;2023-05-19T03:08:23;94513.00;;;9.82;97.36
39223;BME280;24936;46.328;11.026;2023-05-19T03:10:49;94517.34;;;10.12;97.02
39223;BME280;24936;46.328;11.026;2023-05-19T03:13:15;94511.25;;;10.12;96.79
39223;BME280;24936;46.328;11.026;2023-05-19T03:15:41;94506.38;;;9.97;97.01
39223;BME280;24936;46.328;11.026;2023-05-19T03:18:07;94520.38;;;9.98;97.00
39223;BME280;24936;46.328;11.026;2023-05-19T03:20:32;94514.84;;;10.10;97.35
39223;BME280;24936;46.328;11.026;2023-05-19T03:22:59;94510.81;;;9.97;97.61
39223;BME280;24936;46.328;11.026;2023-05-19T03:25:25;94517.19;;;9.94;98.01
39223;BME280;24936;46.328;11.026;2023-05-19T03:27:50;94509.00;;;9.87;98.39
39223;BME280;24936;46.328;11.026;2023-05-19T03:30:16;94517.97;;;9.85;98.65
39223;BME280;24936;46.328;11.026;2023-05-19T03:32:41;94510.53;;;9.90;98.18
39223;BME280;24936;46.328;11.026;2023-05-19T03:35:07;94524.47;;;9.81;98.45
39223;BME280;24936;46.328;11.026;2023-05-19T03:37:32;94516.84;;;9.77;98.91
39223;BME280;24936;46.328;11.026;2023-05-19T03:39:58;94525.97;;;9.73;98.97
39223;BME280;24936;46.328;11.026;2023-05-19T03:42:24;94518.81;;;9.85;99.15
39223;BME280;24936;46.328;11.026;2023-05-19T03:44:49;94521.00;;;9.80;98.92
39223;BME280;24936;46.328;11.026;2023-05-19T03:47:15;94521.75;;;9.92;98.61
39223;BME280;24936;46.328;11.026;2023-05-19T03:49:40;94521.91;;;10.10;97.29
39223;BME280;24936;46.328;11.026;2023-05-19T03:52:06;94524.28;;;10.13;97.36
39223;BME280;24936;46.328;11.026;2023-05-19T03:54:31;94523.84;;;10.08;97.82
39223;BME280;24936;46.328;11.026;2023-05-19T03:56:57;94532.13;;;10.03;97.53
39223;BME280;24936;46.328;11.026;2023-05-19T03:59:23;94527.59;;;10.05;97.62
39223;BME280;24936;46.328;11.026;2023-05-19T04:01:49;94530.47;;;10.02;97.48
39223;BME280;24936;46.328;11.026;2023-05-19T04:04:14;94529.81;;;10.10;97.67
39223;BME280;24936;46.328;11.026;2023-05-19T04:06:40;94535.88;;;10.10;97.72
39223;BME280;24936;46.328;11.026;2023-05-19T04:09:13;94524.41;;;10.12;97.73
39223;BME280;24936;46.328;11.026;2023-05-19T04:11:39;94534.13;;;10.21;97.77
39223;BME280;24936;46.328;11.026;2023-05-19T04:14:05;94528.88;;;10.21;97.69
39223;BME280;24936;46.328;11.026;2023-05-19T04:16:31;94529.13;;;10.18;97.36
39223;BME280;24936;46.328;11.026;2023-05-19T04:18:57;94528.00;;;10.10;96.75
39223;BME280;24936;46.328;11.026;2023-05-19T04:21:22;94539.91;;;10.15;96.43
39223;BME280;24936;46.328;11.026;2023-05-19T04:23:48;94538.56;;;10.30;96.41
39223;BME280;24936;46.328;11.026;2023-05-19T04:26:13;94540.09;;;10.23;96.36
39223;BME280;24936;46.328;11.026;2023-05-19T04:28:39;94537.16;;;10.26;96.73
39223;BME280;24936;46.328;11.026;2023-05-19T04:31:07;94548.13;;;10.31;96.42
39223;BME280;24936;46.328;11.026;2023-05-19T04:33:37;94544.09;;;10.27;95.78
39223;BME280;24936;46.328;11.026;2023-05-19T04:36:04;94537.44;;;10.23;95.33
39223;BME280;24936;46.328;11.026;2023-05-19T04:38:29;94533.56;;;10.27;95.60
39223;BME280;24936;46.328;11.026;2023-05-19T04:40:55;94553.53;;;10.39;94.99
39223;BME280;24936;46.328;11.026;2023-05-19T04:43:21;94544.66;;;10.31;94.65
39223;BME280;24936;46.328;11.026;2023-05-19T04:45:47;94541.03;;;10.32;94.28
39223;BME280;24936;46.328;11.026;2023-05-19T04:48:14;94543.28;;;10.36;93.93
39223;BME280;24936;46.328;11.026;2023-05-19T04:50:40;94545.56;;;10.51;93.64
39223;BME280;24936;46.328;11.026;2023-05-19T04:53:13;94536.69;;;10.42;93.30
39223;BME280;24936;46.328;11.026;2023-05-19T04:55:39;94545.38;;;10.43;93.89
39223;BME280;24936;46.328;11.026;2023-05-19T04:58:04;94547.19;;;10.42;94.71
39223;BME280;24936;46.328;11.026;2023-05-19T05:00:31;94542.06;;;10.40;95.02
39223;BME280;24936;46.328;11.026;2023-05-19T05:02:56;94551.91;;;10.68;94.52
39223;BME280;24936;46.328;11.026;2023-05-19T05:05:22;94558.56;;;10.62;94.84
39223;BME280;24936;46.328;11.026;2023-05-19T05:07:48;94552.19;;;10.55;94.98
39223;BME280;24936;46.328;11.026;2023-05-19T05:10:15;94556.63;;;10.54;95.40
39223;BME280;24936;46.328;11.026;2023-05-19T05:12:41;94552.75;;;10.49;94.89
39223;BME280;24936;46.328;11.026;2023-05-19T05:15:26;94548.59;;;10.56;94.80
39223;BME280;24936;46.328;11.026;2023-05-19T05:17:54;94556.22;;;10.59;95.25
39223;BME280;24936;46.328;11.026;2023-05-19T05:20:23;94554.13;;;10.63;95.32
39223;BME280;24936;46.328;11.026;2023-05-19T05:22:49;94547.50;;;10.59;94.92
39223;BME280;24936;46.328;11.026;2023-05-19T05:25:15;94548.03;;;10.62;94.86
39223;BME280;24936;46.328;11.026;2023-05-19T05:27:41;94551.38;;;10.64;94.70
39223;BME280;24936;46.328;11.026;2023-05-19T05:30:06;94549.28;;;10.58;94.20
39223;BME280;24936;46.328;11.026;2023-05-19T05:32:32;94551.50;;;10.63;94.25
39223;BME280;24936;46.328;11.026;2023-05-19T05:34:58;94551.06;;;10.67;94.30
39223;BME280;24936;46.328;11.026;2023-05-19T05:37:23;94551.91;;;10.68;94.30
39223;BME280;24936;46.328;11.026;2023-05-19T05:39:52;94548.75;;;10.64;93.56
39223;BME280;24936;46.328;11.026;2023-05-19T05:48:45;94554.56;;;10.78;92.89
39223;BME280;24936;46.328;11.026;2023-05-19T05:51:11;94548.88;;;10.73;92.36
39223;BME280;24936;46.328;11.026;2023-05-19T05:56:42;94557.47;;;10.75;90.53
39223;BME280;24936;46.328;11.026;2023-05-19T06:01:43;94561.34;;;10.90;91.82
39223;BME280;24936;46.328;11.026;2023-05-19T06:04:09;94554.41;;;10.89;91.36
39223;BME280;24936;46.328;11.026;2023-05-19T06:06:35;94556.34;;;10.97;90.93
39223;BME280;24936;46.328;11.026;2023-05-19T06:09:02;94554.69;;;10.96;90.41
39223;BME280;24936;46.328;11.026;2023-05-19T06:11:28;94556.88;;;11.00;89.70
39223;BME280;24936;46.328;11.026;2023-05-19T06:13:53;94550.75;;;11.20;89.54
39223;BME280;24936;46.328;11.026;2023-05-19T06:16:19;94554.34;;;11.28;89.15
39223;BME280;24936;46.328;11.026;2023-05-19T06:18:44;94550.13;;;11.55;89.63
39223;BME280;24936;46.328;11.026;2023-05-19T06:35:13;94562.09;;;11.87;89.14
39223;BME280;24936;46.328;11.026;2023-05-19T06:37:46;94559.31;;;11.79;89.40
39223;BME280;24936;46.328;11.026;2023-05-19T06:40:23;94555.88;;;11.78;89.80
39223;BME280;24936;46.328;11.026;2023-05-19T06:42:54;94568.22;;;11.78;89.02
39223;BME280;24936;46.328;11.026;2023-05-19T06:45:27;94561.94;;;11.89;89.64
39223;BME280;24936;46.328;11.026;2023-05-19T07:04:13;94568.00;;;11.99;86.44
39223;BME280;24936;46.328;11.026;2023-05-19T07:06:45;94572.59;;;11.97;86.44
39223;BME280;24936;46.328;11.026;2023-05-19T07:09:28;94574.69;;;11.93;86.77
39223;BME280;24936;46.328;11.026;2023-05-19T07:12:02;94565.25;;;12.01;86.89
39223;BME280;24936;46.328;11.026;2023-05-19T07:14:38;94567.16;;;12.08;86.60
39223;BME280;24936;46.328;11.026;2023-05-19T07:17:06;94564.50;;;12.36;86.48
39223;BME280;24936;46.328;11.026;2023-05-19T07:19:54;94556.59;;;12.36;86.54
39223;BME280;24936;46.328;11.026;2023-05-19T07:22:23;94550.75;;;12.33;86.34
39223;BME280;24936;46.328;11.026;2023-05-19T07:31:38;94561.38;;;12.69;83.71
39223;BME280;24936;46.328;11.026;2023-05-19T07:34:24;94554.19;;;12.79;83.70
39223;BME280;24936;46.328;11.026;2023-05-19T07:36:52;94549.19;;;13.12;83.89
39223;BME280;24936;46.328;11.026;2023-05-19T07:42:49;94548.13;;;13.41;81.29
39223;BME280;24936;46.328;11.026;2023-05-19T07:45:20;94552.94;;;13.46;80.16
39223;BME280;24936;46.328;11.026;2023-05-19T07:47:48;94549.44;;;13.45;81.76
39223;BME280;24936;46.328;11.026;2023-05-19T07:50:17;94549.50;;;13.54;77.50
39223;BME280;24936;46.328;11.026;2023-05-19T07:52:53;94542.59;;;13.35;76.40
39223;BME280;24936;46.328;11.026;2023-05-19T07:55:30;94545.38;;;13.33;79.65
39223;BME280;24936;46.328;11.026;2023-05-19T07:57:59;94550.97;;;13.30;80.80
39223;BME280;24936;46.328;11.026;2023-05-19T08:00:24;94538.22;;;13.25;80.06
39223;BME280;24936;46.328;11.026;2023-05-19T08:02:50;94546.50;;;13.30;79.96
39223;BME280;24936;46.328;11.026;2023-05-19T08:05:17;94539.06;;;13.26;80.33
39223;BME280;24936;46.328;11.026;2023-05-19T08:07:43;94539.47;;;13.39;79.85
39223;BME280;24936;46.328;11.026;2023-05-19T08:10:33;94534.44;;;13.28;79.83
39223;BME280;24936;46.328;11.026;2023-05-19T08:13:42;94530.59;;;13.40;80.84
39223;BME280;24936;46.328;11.026;2023-05-19T08:16:29;94535.78;;;13.32;80.08
39223;BME280;24936;46.328;11.026;2023-05-19T08:19:00;94537.81;;;13.38;80.72
39223;BME280;24936;46.328;11.026;2023-05-19T08:21:31;94532.53;;;13.38;79.28
39223;BME280;24936;46.328;11.026;2023-05-19T08:24:10;94519.53;;;13.45;80.04
39223;BME280;24936;46.328;11.026;2023-05-19T08:26:38;94526.72;;;13.61;80.86
39223;BME280;24936;46.328;11.026;2023-05-19T08:29:14;94528.47;;;13.79;80.38
39223;BME280;24936;46.328;11.026;2023-05-19T08:31:51;94520.75;;;13.94;79.20
39223;BME280;24936;46.328;11.026;2023-05-19T08:37:38;94522.22;;;14.31;77.08
39223;BME280;24936;46.328;11.026;2023-05-19T08:40:04;94523.19;;;14.21;77.68
39223;BME280;24936;46.328;11.026;2023-05-19T08:42:30;94522.19;;;14.14;78.04
39223;BME280;24936;46.328;11.026;2023-05-19T08:45:16;94517.16;;;14.54;76.75
39223;BME280;24936;46.328;11.026;2023-05-19T08:54:52;94513.09;;;15.18;75.01
39223;BME280;24936;46.328;11.026;2023-05-19T09:03:47;94505.66;;;15.78;71.08
39223;BME280;24936;46.328;11.026;2023-05-19T09:06:14;94501.78;;;15.97;70.51
39223;BME280;24936;46.328;11.026;2023-05-19T09:09:03;94504.50;;;15.88;70.37
39223;BME280;24936;46.328;11.026;2023-05-19T09:11:32;94501.19;;;15.70;69.90
39223;BME280;24936;46.328;11.026;2023-05-19T09:14:14;94504.81;;;15.94;70.95
39223;BME280;24936;46.328;11.026;2023-05-19T09:16:51;94503.47;;;15.81;71.05
39223;BME280;24936;46.328;11.026;2023-05-19T09:23:06;94506.22;;;15.40;71.75
39223;BME280;24936;46.328;11.026;2023-05-19T09:26:00;94501.91;;;15.64;70.58
39223;BME280;24936;46.328;11.026;2023-05-19T09:28:39;94500.91;;;15.65;70.53
39223;BME280;24936;46.328;11.026;2023-05-19T09:31:24;94496.34;;;15.90;69.50
39223;BME280;24936;46.328;11.026;2023-05-19T09:34:10;94491.56;;;15.85;70.58
39223;BME280;24936;46.328;11.026;2023-05-19T09:43:53;94495.25;;;16.47;69.14
39223;BME280;24936;46.328;11.026;2023-05-19T09:46:28;94493.25;;;17.19;69.72
39223;BME280;24936;46.328;11.026;2023-05-19T09:52:30;94492.13;;;17.82;64.36
39223;BME280;24936;46.328;11.026;2023-05-19T09:54:55;94492.84;;;17.46;67.59
39223;BME280;24936;46.328;11.026;2023-05-19T09:57:25;94492.84;;;17.07;67.21
39223;BME280;24936;46.328;11.026;2023-05-19T09:59:54;94486.97;;;17.50;63.90
39223;BME280;24936;46.328;11.026;2023-05-19T10:02:21;94489.47;;;17.67;64.46
39223;BME280;24936;46.328;11.026;2023-05-19T10:04:55;94484.16;;;17.67;62.43
39223;BME280;24936;46.328;11.026;2023-05-19T10:07:30;94486.72;;;17.60;61.63
39223;BME280;24936;46.328;11.026;2023-05-19T10:15:08;94482.94;;;17.01;63.30
39223;BME280;24936;46.328;11.026;2023-05-19T10:35:07;94497.94;;;15.43;65.34
39223;BME280;24936;46.328;11.026;2023-05-19T10:45:22;94486.66;;;16.05;65.62
39223;BME280;24936;46.328;11.026;2023-05-19T10:48:14;94489.78;;;16.09;67.16
39223;BME280;24936;46.328;11.026;2023-05-19T11:06:39;94477.50;;;16.71;66.17
39223;BME280;24936;46.328;11.026;2023-05-19T11:09:18;94477.19;;;16.66;61.88
39223;BME280;24936;46.328;11.026;2023-05-19T11:11:54;94479.75;;;17.06;62.68
39223;BME280;24936;46.328;11.026;2023-05-19T11:14:25;94477.72;;;17.61;61.53
39223;BME280;24936;46.328;11.026;2023-05-19T11:37:48;94467.09;;;18.43;56.39
39223;BME280;24936;46.328;11.026;2023-05-19T11:40:16;94456.44;;;18.64;54.10
39223;BME280;24936;46.328;11.026;2023-05-19T11:48:22;94456.31;;;19.80;54.65
39223;BME280;24936;46.328;11.026;2023-05-19T11:50:49;94453.59;;;20.01;54.35
39223;BME280;24936;46.328;11.026;2023-05-19T11:53:15;94456.06;;;20.65;52.63
39223;BME280;24936;46.328;11.026;2023-05-19T11:55:48;94444.38;;;21.47;53.14
39223;BME280;24936;46.328;11.026;2023-05-19T11:58:24;94448.06;;;21.73;47.46
39223;BME280;24936;46.328;11.026;2023-05-19T12:04:44;94441.88;;;22.31;46.96
39223;BME280;24936;46.328;11.026;2023-05-19T12:07:35;94439.63;;;21.56;48.59
39223;BME280;24936;46.328;11.026;2023-05-19T12:10:04;94444.38;;;19.40;53.58
39223;BME280;24936;46.328;11.026;2023-05-19T12:12:30;94452.13;;;18.85;53.33
39223;BME280;24936;46.328;11.026;2023-05-19T12:14:56;94446.72;;;18.57;54.69
39223;BME280;24936;46.328;11.026;2023-05-19T12:17:21;94448.31;;;18.51;58.61
39223;BME280;24936;46.328;11.026;2023-05-19T12:19:50;94447.66;;;18.27;55.31
39223;BME280;24936;46.328;11.026;2023-05-19T12:22:16;94447.44;;;18.44;57.85
39223;BME280;24936;46.328;11.026;2023-05-19T12:24:59;94443.03;;;18.36;55.16
39223;BME280;24936;46.328;11.026;2023-05-19T12:27:26;94443.13;;;18.43;55.88
39223;BME280;24936;46.328;11.026;2023-05-19T12:29:53;94453.22;;;18.32;56.65
39223;BME280;24936;46.328;11.026;2023-05-19T12:32:23;94448.16;;;18.16;56.56
39223;BME280;24936;46.328;11.026;2023-05-19T12:34:50;94436.28;;;18.18;58.75
39223;BME280;24936;46.328;11.026;2023-05-19T12:37:16;94449.09;;;18.45;60.49
39223;BME280;24936;46.328;11.026;2023-05-19T12:39:42;94444.56;;;18.24;57.79
39223;BME280;24936;46.328;11.026;2023-05-19T12:42:09;94442.75;;;17.49;58.49
39223;BME280;24936;46.328;11.026;2023-05-19T12:44:47;94434.19;;;17.24;59.01
39223;BME280;24936;46.328;11.026;2023-05-19T12:47:18;94444.38;;;17.35;60.88
39223;BME280;24936;46.328;11.026;2023-05-19T12:50:10;94438.59;;;17.17;61.05
39223;BME280;24936;46.328;11.026;2023-05-19T12:52:43;94435.50;;;17.58;62.75
39223;BME280;24936;46.328;11.026;2023-05-19T12:55:10;94435.94;;;17.77;59.04
39223;BME280;24936;46.328;11.026;2023-05-19T12:57:40;94439.06;;;17.95;58.23
39223;BME280;24936;46.328;11.026;2023-05-19T13:00:17;94437.34;;;18.61;59.27
39223;BME280;24936;46.328;11.026;2023-05-19T13:06:26;94424.50;;;19.15;52.45
39223;BME280;24936;46.328;11.026;2023-05-19T13:11:49;94430.28;;;18.75;56.65
39223;BME280;24936;46.328;11.026;2023-05-19T13:25:31;94435.41;;;16.83;62.40
39223;BME280;24936;46.328;11.026;2023-05-19T13:31:12;94437.25;;;17.66;58.88
39223;BME280;24936;46.328;11.026;2023-05-19T13:33:39;94429.34;;;17.87;58.78
39223;BME280;24936;46.328;11.026;2023-05-19T13:48:58;94435.72;;;18.23;57.20
39223;BME280;24936;46.328;11.026;2023-05-19T13:51:58;94426.03;;;17.85;59.17
39223;BME280;24936;46.328;11.026;2023-05-19T13:54:24;94435.59;;;17.50;58.78
39223;BME280;24936;46.328;11.026;2023-05-19T13:56:49;94433.94;;;17.34;63.05
39223;BME280;24936;46.328;11.026;2023-05-19T13:59:15;94437.41;;;17.19;61.23
39223;BME280;24936;46.328;11.026;2023-05-19T14:01:42;94436.84;;;17.09;60.23
39223;BME280;24936;46.328;11.026;2023-05-19T14:04:09;94435.00;;;17.09;62.36
39223;BME280;24936;46.328;11.026;2023-05-19T14:06:35;94432.59;;;17.00;61.76
39223;BME280;24936;46.328;11.026;2023-05-19T14:09:02;94429.47;;;16.96;61.96
39223;BME280;24936;46.328;11.026;2023-05-19T14:11:28;94432.66;;;16.68;64.16
39223;BME280;24936;46.328;11.026;2023-05-19T14:13:53;94444.19;;;16.14;68.90
39223;BME280;24936;46.328;11.026;2023-05-19T14:16:18;94440.22;;;15.62;72.78
39223;BME280;24936;46.328;11.026;2023-05-19T14:21:39;94432.56;;;15.10;74.53
39223;BME280;24936;46.328;11.026;2023-05-19T14:26:52;94435.69;;;15.31;71.82
39223;BME280;24936;46.328;11.026;2023-05-19T14:29:18;94438.91;;;15.57;72.82
39223;BME280;24936;46.328;11.026;2023-05-19T14:31:43;94431.56;;;15.76;69.59
39223;BME280;24936;46.328;11.026;2023-05-19T14:34:09;94428.72;;;15.78;68.36
39223;BME280;24936;46.328;11.026;2023-05-19T14:36:34;94433.78;;;16.04;70.99
39223;BME280;24936;46.328;11.026;2023-05-19T14:39:00;94436.25;;;16.05;69.36
39223;BME280;24936;46.328;11.026;2023-05-19T14:41:26;94436.34;;;16.20;68.45
39223;BME280;24936;46.328;11.026;2023-05-19T14:43:51;94424.53;;;16.46;67.89
39223;BME280;24936;46.328;11.026;2023-05-19T14:46:17;94429.28;;;16.36;66.82
39223;BME280;24936;46.328;11.026;2023-05-19T14:48:42;94427.44;;;16.36;66.26
39223;BME280;24936;46.328;11.026;2023-05-19T14:51:08;94428.84;;;16.24;64.08
39223;BME280;24936;46.328;11.026;2023-05-19T14:53:33;94423.81;;;16.06;66.10
39223;BME280;24936;46.328;11.026;2023-05-19T14:55:58;94432.44;;;16.08;66.78
39223;BME280;24936;46.328;11.026;2023-05-19T14:58:24;94435.16;;;15.92;67.11
39223;BME280;24936;46.328;11.026;2023-05-19T15:00:49;94436.31;;;15.89;66.91
39223;BME280;24936;46.328;11.026;2023-05-19T15:03:15;94431.25;;;16.11;65.29
39223;BME280;24936;46.328;11.026;2023-05-19T15:05:40;94431.13;;;16.04;67.68
39223;BME280;24936;46.328;11.026;2023-05-19T15:08:10;94428.34;;;15.89;65.41
39223;BME280;24936;46.328;11.026;2023-05-19T15:20:55;94430.28;;;15.55;67.90
39223;BME280;24936;46.328;11.026;2023-05-19T15:23:21;94434.25;;;15.59;69.55
39223;BME280;24936;46.328;11.026;2023-05-19T15:25:46;94428.66;;;15.46;67.78
39223;BME280;24936;46.328;11.026;2023-05-19T15:28:11;94432.13;;;15.47;69.96
39223;BME280;24936;46.328;11.026;2023-05-19T15:30:41;94431.59;;;15.59;68.03
39223;BME280;24936;46.328;11.026;2023-05-19T15:33:07;94431.19;;;15.39;69.48
39223;BME280;24936;46.328;11.026;2023-05-19T15:35:32;94421.38;;;15.40;69.62
39223;BME280;24936;46.328;11.026;2023-05-19T15:37:58;94422.72;;;15.44;68.84
39223;BME280;24936;46.328;11.026;2023-05-19T15:40:29;94432.78;;;15.57;68.99
39223;BME280;24936;46.328;11.026;2023-05-19T15:42:54;94432.28;;;15.62;66.21
39223;BME280;24936;46.328;11.026;2023-05-19T15:45:20;94432.09;;;15.63;68.70
39223;BME280;24936;46.328;11.026;2023-05-19T15:47:45;94424.59;;;15.75;70.01
39223;BME280;24936;46.328;11.026;2023-05-19T15:50:12;94424.22;;;15.86;67.68
39223;BME280;24936;46.328;11.026;2023-05-19T15:52:39;94421.06;;;15.83;68.34
39223;BME280;24936;46.328;11.026;2023-05-19T15:55:08;94423.13;;;15.64;66.80
39223;BME280;24936;46.328;11.026;2023-05-19T15:57:33;94420.66;;;15.63;67.81
39223;BME280;24936;46.328;11.026;2023-05-19T16:07:55;94415.78;;;15.26;69.51
39223;BME280;24936;46.328;11.026;2023-05-19T16:10:21;94413.50;;;15.23;69.13
39223;BME280;24936;46.328;11.026;2023-05-19T16:12:49;94413.84;;;15.12;68.13
39223;BME280;24936;46.328;11.026;2023-05-19T16:15:15;94416.03;;;14.92;69.86
39223;BME280;24936;46.328;11.026;2023-05-19T16:17:40;94418.03;;;14.98;70.47
39223;BME280;24936;46.328;11.026;2023-05-19T16:20:06;94410.09;;;14.90;70.56
39223;BME280;24936;46.328;11.026;2023-05-19T16:22:32;94412.44;;;14.76;70.62
39223;BME280;24936;46.328;11.026;2023-05-19T16:24:58;94407.25;;;14.58;71.65
39223;BME280;24936;46.328;11.026;2023-05-19T16:27:23;94413.72;;;14.56;71.74
39223;BME280;24936;46.328;11.026;2023-05-19T16:29:49;94410.25;;;14.38;71.79
39223;BME280;24936;46.328;11.026;2023-05-19T16:32:14;94406.75;;;14.38;71.48
39223;BME280;24936;46.328;11.026;2023-05-19T16:34:40;94416.03;;;14.34;73.48
39223;BME280;24936;46.328;11.026;2023-05-19T16:37:05;94413.53;;;14.24;73.07
39223;BME280;24936;46.328;11.026;2023-05-19T16:39:34;94415.66;;;14.12;75.03
39223;BME280;24936;46.328;11.026;2023-05-19T16:42:08;94415.19;;;14.25;75.10
39223;BME280;24936;46.328;11.026;2023-05-19T16:44:33;94414.16;;;14.10;75.47
39223;BME280;24936;46.328;11.026;2023-05-19T16:46:59;94420.09;;;14.03;76.90
39223;BME280;24936;46.328;11.026;2023-05-19T16:49:24;94419.06;;;13.80;79.96
39223;BME280;24936;46.328;11.026;2023-05-19T16:54:42;94420.28;;;13.51;81.12
39223;BME280;24936;46.328;11.026;2023-05-19T16:57:12;94423.97;;;13.31;82.21